createdAt,value
2018-10-12T00:00:13.237Z,1010.77
2018-10-12T00:01:13.197Z,1010.81
2018-10-12T00:02:13.048Z,1010.78
2018-10-12T00:03:13.005Z,1010.81
2018-10-12T00:04:12.894Z,1010.80
2018-10-12T00:05:13.878Z,1010.82
2018-10-12T00:06:12.740Z,1010.82
2018-10-12T00:07:12.744Z,1010.83
2018-10-12T00:08:12.612Z,1010.84
2018-10-12T00:09:12.557Z,1010.83
2018-10-12T00:10:12.432Z,1010.84
2018-10-12T00:12:54.513Z,1010.91
2018-10-12T00:13:54.560Z,1010.89
2018-10-12T00:14:54.362Z,1010.91
2018-10-12T00:15:54.401Z,1010.96
2018-10-12T00:16:54.186Z,1010.96
2018-10-12T00:17:54.169Z,1011.01
2018-10-12T00:18:54.032Z,1011.04
2018-10-12T00:19:53.987Z,1011.05
2018-10-12T00:20:53.886Z,1011.04
2018-10-12T00:25:18.038Z,1011.05
2018-10-12T00:26:19.030Z,1011.05
2018-10-12T00:27:17.981Z,1011.07
2018-10-12T00:30:00.038Z,1011.19
2018-10-12T00:32:42.111Z,1011.19
2018-10-12T00:33:41.991Z,1011.07
2018-10-12T01:01:03.693Z,1011.13
2018-10-12T01:02:03.584Z,1011.14
2018-10-12T01:03:03.620Z,1011.16
2018-10-12T01:04:03.417Z,1011.16
2018-10-12T01:05:03.393Z,1011.14
2018-10-12T01:06:03.269Z,1011.18
2018-10-12T01:07:03.261Z,1011.16
2018-10-12T01:08:03.129Z,1011.24
2018-10-12T01:09:03.222Z,1011.30
2018-10-12T01:10:02.944Z,1011.26
2018-10-12T01:12:19.668Z,1011.22
2018-10-12T01:12:20.190Z,1011.20
2018-10-12T01:13:20.171Z,1011.24
2018-10-12T01:14:19.971Z,1011.22
2018-10-12T01:15:19.979Z,1011.31
2018-10-12T01:16:19.786Z,1011.25
2018-10-12T01:17:19.896Z,1011.23
2018-10-12T01:18:19.670Z,1011.24
2018-10-12T01:19:19.603Z,1011.16
2018-10-12T01:20:19.509Z,1011.21
2018-10-12T01:21:19.487Z,1011.17
2018-10-12T01:22:19.311Z,1011.11
2018-10-12T01:23:19.419Z,1011.16
2018-10-12T01:24:19.192Z,1011.18
2018-10-12T01:25:19.112Z,1011.18
2018-10-12T01:26:18.984Z,1011.18
2018-10-12T01:27:19.003Z,1011.14
2018-10-12T01:28:18.837Z,1011.20
2018-10-12T01:29:18.811Z,1011.12
2018-10-12T01:30:18.655Z,1011.13
2018-10-12T01:31:18.624Z,1011.15
2018-10-12T01:32:18.507Z,1011.15
2018-10-12T01:33:18.446Z,1011.04
2018-10-12T01:34:18.322Z,1011.10
2018-10-12T01:37:00.546Z,1011.06
2018-10-12T01:38:00.528Z,1011.08
2018-10-12T01:39:00.390Z,1011.04
2018-10-12T01:40:00.369Z,1011.04
2018-10-12T01:41:00.226Z,1011.06
2018-10-12T01:42:00.255Z,1011.06
2018-10-12T01:43:00.054Z,1011.05
2018-10-12T01:44:00.089Z,1010.96
2018-10-12T01:44:59.901Z,1010.98
2018-10-12T01:45:59.878Z,1010.99
2018-10-12T01:46:59.725Z,1011.00
2018-10-12T01:47:59.677Z,1011.07
2018-10-12T01:48:59.582Z,1011.11
2018-10-12T01:49:59.599Z,1011.26
2018-10-12T01:50:59.403Z,1011.28
2018-10-12T01:51:59.375Z,1011.31
2018-10-12T01:52:59.310Z,1011.28
2018-10-12T01:53:59.256Z,1011.24
2018-10-12T01:54:59.083Z,1011.30
2018-10-12T01:55:59.233Z,1011.36
2018-10-12T01:56:58.950Z,1011.36
2018-10-12T02:00:48.542Z,1011.45
2018-10-12T02:01:48.547Z,1011.40
2018-10-12T02:02:48.386Z,1011.43
2018-10-12T02:03:48.455Z,1011.44
2018-10-12T02:04:48.217Z,1011.42
2018-10-12T02:07:30.079Z,1011.47
2018-10-12T02:08:29.970Z,1011.47
2018-10-12T02:09:29.887Z,1011.53
2018-10-12T02:10:29.847Z,1011.50
2018-10-12T02:11:29.728Z,1011.53
2018-10-12T02:12:29.742Z,1011.53
2018-10-12T02:13:29.582Z,1011.59
2018-10-12T02:14:29.564Z,1011.61
2018-10-12T02:15:29.388Z,1011.61
2018-10-12T02:16:29.396Z,1011.61
2018-10-12T02:17:29.246Z,1011.60
2018-10-12T02:18:29.270Z,1011.61
2018-10-12T02:19:29.093Z,1011.58
2018-10-12T02:20:29.118Z,1011.65
2018-10-12T02:21:28.930Z,1011.61
2018-10-12T02:22:28.927Z,1011.67
2018-10-12T02:23:28.761Z,1011.66
2018-10-12T02:24:28.797Z,1011.65
2018-10-12T02:25:28.589Z,1011.69
2018-10-12T02:26:28.606Z,1011.68
2018-10-12T02:27:28.451Z,1011.70
2018-10-12T02:28:28.419Z,1011.66
2018-10-12T02:29:28.281Z,1011.66
2018-10-12T02:30:28.206Z,1011.73
2018-10-12T02:31:28.158Z,1011.72
2018-10-12T02:32:28.137Z,1011.71
2018-10-12T02:33:27.942Z,1011.63
2018-10-12T02:34:27.940Z,1011.70
2018-10-12T02:35:27.793Z,1011.71
2018-10-12T02:36:27.748Z,1011.70
2018-10-12T02:37:27.799Z,1011.76
2018-10-12T02:38:27.664Z,1011.78
2018-10-12T02:39:27.464Z,1011.77
2018-10-12T02:40:27.468Z,1011.76
2018-10-12T02:41:27.315Z,1011.75
2018-10-12T02:42:27.306Z,1011.72
2018-10-12T02:43:27.147Z,1011.70
2018-10-12T02:44:27.090Z,1011.76
2018-10-12T02:45:26.991Z,1011.72
2018-10-12T02:48:09.087Z,1011.85
2018-10-12T02:49:09.099Z,1011.86
2018-10-12T02:50:08.893Z,1011.85
2018-10-12T02:51:08.907Z,1011.87
2018-10-12T02:52:08.743Z,1011.90
2018-10-12T02:53:08.795Z,1011.89
2018-10-12T02:54:08.582Z,1011.90
2018-10-12T02:56:50.555Z,1011.94
2018-10-12T02:57:50.558Z,1012.02
2018-10-12T02:58:50.388Z,1012.09
2018-10-12T02:59:52.390Z,1012.13
2018-10-12T03:00:50.243Z,1012.16
2018-10-12T03:03:32.096Z,1012.17
2018-10-12T03:04:32.038Z,1012.14
2018-10-12T03:05:31.897Z,1012.20
2018-10-12T03:06:31.936Z,1012.21
2018-10-12T03:07:31.734Z,1012.23
2018-10-12T03:08:31.784Z,1012.22
2018-10-12T03:09:31.572Z,1012.17
2018-10-12T03:10:31.605Z,1012.19
2018-10-12T03:11:31.405Z,1012.24
2018-10-12T03:12:31.412Z,1012.15
2018-10-12T03:13:31.265Z,1012.22
2018-10-12T03:14:31.333Z,1012.21
2018-10-12T03:15:31.102Z,1012.24
2018-10-12T03:16:31.091Z,1012.22
2018-10-12T03:17:30.921Z,1012.20
2018-10-12T03:18:30.945Z,1012.23
2018-10-12T03:19:30.767Z,1012.13
2018-10-12T03:20:30.747Z,1012.21
2018-10-12T03:21:30.613Z,1012.19
2018-10-12T03:22:30.626Z,1012.25
2018-10-12T03:23:30.465Z,1012.22
2018-10-12T03:24:30.468Z,1012.23
2018-10-12T03:25:30.285Z,1012.23
2018-10-12T03:26:32.291Z,1012.22
2018-10-12T03:27:30.134Z,1012.19
2018-10-12T03:28:30.157Z,1012.24
2018-10-12T03:29:29.987Z,1012.25
2018-10-12T03:30:29.949Z,1012.25
2018-10-12T03:31:29.802Z,1012.21
2018-10-12T03:32:29.762Z,1012.23
2018-10-12T03:33:29.639Z,1012.21
2018-10-12T03:34:30.737Z,1012.20
2018-10-12T03:35:29.475Z,1012.20
2018-10-12T03:36:29.485Z,1012.23
2018-10-12T03:37:29.310Z,1012.28
2018-10-12T03:38:29.301Z,1012.30
2018-10-12T03:39:29.153Z,1012.30
2018-10-12T03:40:29.128Z,1012.29
2018-10-12T03:41:28.983Z,1012.29
2018-10-12T03:42:29.012Z,1012.29
2018-10-12T03:43:28.832Z,1012.35
2018-10-12T03:44:29.983Z,1012.39
2018-10-12T03:45:28.688Z,1012.43
2018-10-12T03:46:28.654Z,1012.41
2018-10-12T03:47:28.534Z,1012.45
2018-10-12T03:50:10.593Z,1012.51
2018-10-12T03:51:31.465Z,1012.51
2018-10-12T03:52:10.416Z,1012.42
2018-10-12T03:53:10.464Z,1012.48
2018-10-12T03:54:10.273Z,1012.56
2018-10-12T03:55:10.216Z,1012.60
2018-10-12T03:56:10.136Z,1012.59
2018-10-12T03:57:10.013Z,1012.61
2018-10-12T03:58:09.950Z,1012.65
2018-10-12T03:59:09.845Z,1012.64
2018-10-12T04:00:09.794Z,1012.69
2018-10-12T04:02:35.201Z,1012.74
2018-10-12T04:03:34.997Z,1012.80
2018-10-12T04:04:35.016Z,1012.83
2018-10-12T04:05:34.843Z,1012.78
2018-10-12T04:06:34.775Z,1012.77
2018-10-12T04:18:32.409Z,1012.61
2018-10-12T04:19:32.284Z,1012.64
2018-10-12T04:20:32.222Z,1012.67
2018-10-12T04:21:32.124Z,1012.59
2018-10-12T04:22:32.172Z,1012.58
2018-10-12T04:23:31.955Z,1012.63
2018-10-12T04:24:31.950Z,1012.58
2018-10-12T04:25:31.916Z,1012.59
2018-10-12T04:26:31.726Z,1012.65
2018-10-12T04:27:31.668Z,1012.63
2018-10-12T04:28:31.566Z,1012.66
2018-10-12T04:29:31.475Z,1012.72
2018-10-12T04:30:31.407Z,1012.68
2018-10-12T04:31:31.327Z,1012.68
2018-10-12T04:32:31.269Z,1012.77
2018-10-12T04:33:31.158Z,1012.82
2018-10-12T04:34:31.099Z,1012.87
2018-10-12T04:35:30.997Z,1012.89
2018-10-12T04:36:30.919Z,1012.88
2018-10-12T04:37:30.852Z,1012.98
2018-10-12T04:38:30.761Z,1012.95
2018-10-12T04:39:30.686Z,1012.95
2018-10-12T04:40:30.590Z,1012.96
2018-10-12T04:41:30.503Z,1012.94
2018-10-12T04:42:30.429Z,1012.95
2018-10-12T04:43:30.349Z,1012.99
2018-10-12T04:44:30.298Z,1012.99
2018-10-12T04:45:30.226Z,1013.06
2018-10-12T04:46:30.116Z,1013.06
2018-10-12T04:47:30.020Z,1013.07
2018-10-12T04:48:29.975Z,1013.12
2018-10-12T04:49:29.878Z,1013.16
2018-10-12T04:50:29.813Z,1013.25
2018-10-12T04:51:29.698Z,1013.26
2018-10-12T04:52:29.692Z,1013.27
2018-10-12T04:53:29.556Z,1013.23
2018-10-12T04:54:29.497Z,1013.29
2018-10-12T04:55:29.508Z,1013.24
2018-10-12T04:56:29.295Z,1013.29
2018-10-12T04:57:29.229Z,1013.29
2018-10-12T04:58:29.253Z,1013.30
2018-10-12T04:59:29.123Z,1013.35
2018-10-12T05:02:11.104Z,1013.46
2018-10-12T05:03:11.014Z,1013.47
2018-10-12T05:05:35.627Z,1013.44
2018-10-12T05:06:35.533Z,1013.45
2018-10-12T05:07:35.495Z,1013.42
2018-10-12T05:10:17.621Z,1013.52
2018-10-12T05:11:17.533Z,1013.44
2018-10-12T05:12:17.429Z,1013.44
2018-10-12T05:13:17.365Z,1013.50
2018-10-12T05:14:17.247Z,1013.53
2018-10-12T05:15:17.232Z,1013.52
2018-10-12T05:16:17.114Z,1013.54
2018-10-12T05:17:17.045Z,1013.52
2018-10-12T05:18:16.943Z,1013.59
2018-10-12T05:19:16.875Z,1013.64
2018-10-12T05:20:16.807Z,1013.61
2018-10-12T05:21:16.700Z,1013.61
2018-10-12T05:22:16.727Z,1013.69
2018-10-12T05:23:16.556Z,1013.77
2018-10-12T05:24:16.450Z,1013.78
2018-10-12T05:25:16.428Z,1013.75
2018-10-12T05:26:16.308Z,1013.79
2018-10-12T05:27:16.352Z,1013.81
2018-10-12T05:28:16.152Z,1013.81
2018-10-12T05:29:17.078Z,1013.73
2018-10-12T05:30:16.004Z,1013.77
2018-10-12T05:31:15.925Z,1013.84
2018-10-12T05:32:15.811Z,1013.83
2018-10-12T05:33:15.743Z,1013.84
2018-10-12T05:34:15.687Z,1013.87
2018-10-12T05:35:15.605Z,1013.96
2018-10-12T05:36:15.567Z,1013.86
2018-10-12T05:37:15.426Z,1013.90
2018-10-12T05:38:15.339Z,1013.92
2018-10-12T05:40:57.619Z,1013.90
2018-10-12T05:41:57.535Z,1013.96
2018-10-12T05:42:57.494Z,1013.96
2018-10-12T05:43:58.287Z,1013.93
2018-10-12T05:44:57.566Z,1013.89
2018-10-12T05:45:57.744Z,1013.94
2018-10-12T05:46:57.264Z,1013.92
2018-10-12T06:09:19.228Z,1014.22
2018-10-12T06:12:01.117Z,1014.24
2018-10-12T06:13:02.078Z,1014.22
2018-10-12T06:14:00.941Z,1014.27
2018-10-12T06:16:43.111Z,1014.26
2018-10-12T06:17:43.098Z,1014.25
2018-10-12T06:18:43.028Z,1014.29
2018-10-12T06:21:25.149Z,1014.23
2018-10-12T06:22:26.099Z,1014.22
2018-10-12T06:23:24.971Z,1014.22
2018-10-12T06:24:24.873Z,1014.24
2018-10-12T06:25:24.785Z,1014.24
2018-10-12T06:28:06.611Z,1014.28
2018-10-12T06:29:27.694Z,1014.33
2018-10-12T06:30:06.459Z,1014.38
2018-10-12T06:31:06.385Z,1014.36
2018-10-12T06:32:06.295Z,1014.33
2018-10-12T06:34:48.140Z,1014.41
2018-10-12T06:35:48.076Z,1014.43
2018-10-12T06:36:47.945Z,1014.48
2018-10-12T06:37:47.875Z,1014.53
2018-10-12T06:38:47.815Z,1014.56
2018-10-12T06:41:29.666Z,1014.61
2018-10-12T06:42:29.572Z,1014.63
2018-10-12T06:43:29.479Z,1014.66
2018-10-12T06:44:29.380Z,1014.67
2018-10-12T06:45:29.296Z,1014.70
2018-10-12T06:46:29.272Z,1014.70
2018-10-12T06:47:29.138Z,1014.75
2018-10-12T06:48:30.083Z,1014.79
2018-10-12T06:49:28.972Z,1014.82
2018-10-12T06:50:28.932Z,1014.83
2018-10-12T06:51:28.809Z,1014.83
2018-10-12T06:52:28.761Z,1014.94
2018-10-12T06:53:28.670Z,1014.97
2018-10-12T06:54:29.610Z,1014.98
2018-10-12T06:55:28.487Z,1015.06
2018-10-12T06:56:28.417Z,1015.08
2018-10-12T06:57:28.320Z,1015.09
2018-10-12T07:00:10.645Z,1015.21
2018-10-12T07:02:52.626Z,1015.18
2018-10-12T07:03:52.580Z,1015.22
2018-10-12T07:04:52.500Z,1015.29
2018-10-12T07:05:52.389Z,1015.29
2018-10-12T07:06:52.301Z,1015.25
2018-10-12T07:07:52.225Z,1015.27
2018-10-12T07:08:52.161Z,1015.28
2018-10-12T07:09:53.214Z,1015.29
2018-10-12T07:10:51.974Z,1015.28
2018-10-12T07:11:51.921Z,1015.27
2018-10-12T07:12:51.813Z,1015.31
2018-10-12T07:15:34.236Z,1015.26
2018-10-12T07:16:34.057Z,1015.30
2018-10-12T07:17:33.961Z,1015.35
2018-10-12T07:18:33.890Z,1015.33
2018-10-12T07:19:33.882Z,1015.39
2018-10-12T07:20:35.751Z,1015.45
2018-10-12T07:21:33.655Z,1015.45
2018-10-12T07:24:21.137Z,1015.38
2018-10-12T07:25:21.070Z,1015.49
2018-10-12T07:26:20.971Z,1015.60
2018-10-12T07:27:21.031Z,1015.57
2018-10-12T07:30:03.163Z,1015.50
2018-10-12T07:31:04.119Z,1015.47
2018-10-12T07:32:02.986Z,1015.59
2018-10-12T07:33:02.928Z,1015.54
2018-10-12T07:34:02.812Z,1015.76
2018-10-12T07:35:02.735Z,1015.80
2018-10-12T07:36:02.672Z,1015.79
2018-10-12T07:38:44.642Z,1015.65
2018-10-12T07:39:44.576Z,1015.53
2018-10-12T07:42:09.154Z,1015.59
2018-10-12T07:43:09.093Z,1015.64
2018-10-12T07:44:08.981Z,1015.62
2018-10-12T07:45:08.914Z,1015.65
2018-10-12T07:46:08.839Z,1015.55
2018-10-12T07:48:50.648Z,1015.88
2018-10-12T07:49:50.568Z,1015.76
2018-10-12T07:50:50.488Z,1015.88
2018-10-12T07:51:51.433Z,1015.77
2018-10-12T07:52:50.322Z,1015.81
2018-10-12T07:58:24.581Z,1015.92
2018-10-12T07:59:24.574Z,1015.91
2018-10-12T08:00:24.436Z,1015.91
2018-10-12T08:01:24.342Z,1015.90
2018-10-12T08:02:24.241Z,1015.95
2018-10-12T08:03:24.195Z,1015.90
2018-10-12T08:04:24.087Z,1015.90
2018-10-12T08:05:24.010Z,1015.90
2018-10-12T08:06:24.018Z,1015.89
2018-10-12T08:07:24.890Z,1015.96
2018-10-12T08:08:23.775Z,1015.91
2018-10-12T08:09:23.712Z,1015.94
2018-10-12T08:10:23.642Z,1016.01
2018-10-12T08:11:23.554Z,1015.93
2018-10-12T08:12:23.484Z,1015.92
2018-10-12T08:13:23.388Z,1015.96
2018-10-12T08:14:23.309Z,1015.93
2018-10-12T08:15:23.247Z,1016.02
2018-10-12T08:16:23.161Z,1016.11
2018-10-12T08:17:24.122Z,1016.07
2018-10-12T08:18:23.029Z,1016.06
2018-10-12T08:19:22.941Z,1015.97
2018-10-12T08:20:22.868Z,1015.94
2018-10-12T08:21:22.798Z,1016.05
2018-10-12T08:22:22.699Z,1016.13
2018-10-12T08:23:22.663Z,1016.22
2018-10-12T08:24:22.544Z,1016.15
2018-10-12T08:27:04.771Z,1016.30
2018-10-12T08:28:04.608Z,1016.13
2018-10-12T08:29:04.494Z,1016.06
2018-10-12T08:30:04.421Z,1016.04
2018-10-12T08:31:04.349Z,1016.13
2018-10-12T08:32:04.262Z,1016.06
2018-10-12T08:33:04.235Z,1016.11
2018-10-12T08:34:04.125Z,1016.19
2018-10-12T08:35:04.055Z,1016.18
2018-10-12T08:37:46.150Z,1016.21
2018-10-12T08:38:46.290Z,1016.31
2018-10-12T08:39:46.042Z,1016.22
2018-10-12T08:40:45.943Z,1016.20
2018-10-12T08:41:45.897Z,1016.19
2018-10-12T08:44:27.679Z,1016.38
2018-10-12T08:45:27.590Z,1016.40
2018-10-12T08:46:27.503Z,1016.47
2018-10-12T08:49:09.719Z,1016.40
2018-10-12T08:50:09.603Z,1016.32
2018-10-12T08:51:09.502Z,1016.46
2018-10-12T08:52:09.428Z,1016.41
2018-10-12T08:53:09.369Z,1016.41
2018-10-12T08:54:09.315Z,1016.34
2018-10-12T08:55:09.243Z,1016.39
2018-10-12T08:56:09.139Z,1016.31
2018-10-12T08:57:09.203Z,1016.33
2018-10-12T08:58:08.998Z,1016.37
2018-10-12T08:59:08.904Z,1016.52
2018-10-12T09:00:08.830Z,1016.42
2018-10-12T09:01:08.746Z,1016.37
2018-10-12T09:02:08.668Z,1016.34
2018-10-12T09:03:08.606Z,1016.48
2018-10-12T09:04:08.522Z,1016.40
2018-10-12T09:05:08.446Z,1016.48
2018-10-12T09:06:08.349Z,1016.48
2018-10-12T09:07:08.257Z,1016.55
2018-10-12T09:08:08.190Z,1016.49
2018-10-12T09:09:08.125Z,1016.58
2018-10-12T09:10:08.075Z,1016.49
2018-10-12T09:11:07.996Z,1016.54
2018-10-12T09:12:07.896Z,1016.54
2018-10-12T09:13:07.821Z,1016.35
2018-10-12T09:15:49.803Z,1016.41
2018-10-12T09:16:51.613Z,1016.34
2018-10-12T09:17:49.535Z,1016.43
2018-10-12T09:18:49.462Z,1016.39
2018-10-12T09:19:49.363Z,1016.42
2018-10-12T09:20:49.353Z,1016.37
2018-10-12T09:21:49.300Z,1016.30
2018-10-12T09:22:49.143Z,1016.40
2018-10-12T09:23:49.072Z,1016.50
2018-10-12T09:24:48.999Z,1016.57
2018-10-12T09:25:49.106Z,1016.46
2018-10-12T09:26:48.848Z,1016.51
2018-10-12T09:27:48.775Z,1016.50
2018-10-12T09:30:30.673Z,1016.47
2018-10-12T09:31:30.650Z,1016.53
2018-10-12T09:32:30.520Z,1016.54
2018-10-12T09:35:12.681Z,1016.53
2018-10-12T09:36:14.633Z,1016.54
2018-10-12T09:37:12.574Z,1016.51
2018-10-12T09:38:12.468Z,1016.44
2018-10-12T09:39:12.380Z,1016.46
2018-10-12T09:40:12.322Z,1016.59
2018-10-12T09:41:12.233Z,1016.46
2018-10-12T09:42:12.191Z,1016.55
2018-10-12T09:43:12.094Z,1016.47
2018-10-12T09:44:12.014Z,1016.49
2018-10-12T09:45:11.944Z,1016.53
2018-10-12T09:46:11.883Z,1016.48
2018-10-12T09:47:11.818Z,1016.45
2018-10-12T09:49:53.702Z,1016.47
2018-10-12T09:52:35.896Z,1016.52
2018-10-12T09:53:35.632Z,1016.47
2018-10-12T09:54:35.549Z,1016.46
2018-10-12T09:57:18.296Z,1016.44
2018-10-12T09:58:17.621Z,1016.46
2018-10-12T09:59:17.562Z,1016.44
2018-10-12T10:00:17.484Z,1016.44
2018-10-12T10:01:17.413Z,1016.46
2018-10-12T10:02:17.436Z,1016.46
2018-10-12T10:03:17.248Z,1016.46
2018-10-12T10:04:17.191Z,1016.43
2018-10-12T10:05:17.134Z,1016.39
2018-10-12T10:07:59.225Z,1016.29
2018-10-12T10:10:41.186Z,1016.27
2018-10-12T10:11:41.140Z,1016.26
2018-10-12T10:12:41.074Z,1016.23
2018-10-12T10:13:41.039Z,1016.17
2018-10-12T10:14:40.901Z,1016.26
2018-10-12T10:15:40.835Z,1016.28
2018-10-12T10:16:40.767Z,1016.24
2018-10-12T10:17:40.716Z,1016.25
2018-10-12T10:18:40.654Z,1016.23
2018-10-12T10:19:40.564Z,1016.22
2018-10-12T10:20:40.483Z,1016.23
2018-10-12T10:21:40.411Z,1016.21
2018-10-12T10:22:40.340Z,1016.17
2018-10-12T10:23:40.310Z,1016.17
2018-10-12T10:24:40.259Z,1016.18
2018-10-12T10:25:40.127Z,1016.23
2018-10-12T10:26:40.060Z,1016.18
2018-10-12T10:27:39.997Z,1016.20
2018-10-12T10:28:39.941Z,1016.15
2018-10-12T10:29:39.851Z,1016.16
2018-10-12T10:30:39.776Z,1016.23
2018-10-12T10:31:39.701Z,1016.14
2018-10-12T10:32:39.622Z,1016.17
2018-10-12T10:33:39.596Z,1016.12
2018-10-12T10:34:39.491Z,1016.18
2018-10-12T10:37:21.701Z,1016.06
2018-10-12T10:38:21.736Z,1016.14
2018-10-12T10:39:21.780Z,1016.05
2018-10-12T10:40:21.658Z,1016.12
2018-10-12T10:41:21.688Z,1016.19
2018-10-12T10:44:03.754Z,1016.02
2018-10-12T10:45:03.665Z,1016.08
2018-10-12T10:46:03.556Z,1016.01
2018-10-12T10:47:03.513Z,1016.05
2018-10-12T10:48:03.426Z,1016.10
2018-10-12T10:49:03.390Z,1016.06
2018-10-12T10:50:03.281Z,1016.11
2018-10-12T10:51:03.245Z,1016.08
2018-10-12T10:52:03.137Z,1016.09
2018-10-12T10:54:45.236Z,1016.03
2018-10-12T10:55:45.167Z,1016.10
2018-10-12T10:56:45.069Z,1016.05
2018-10-12T10:59:27.272Z,1016.12
2018-10-12T11:00:27.179Z,1016.07
2018-10-12T11:01:27.077Z,1016.18
2018-10-12T11:04:09.216Z,1016.06
2018-10-12T11:05:10.192Z,1016.04
2018-10-12T11:06:09.102Z,1016.04
2018-10-12T11:08:51.246Z,1016.02
2018-10-12T11:09:52.192Z,1016.03
2018-10-12T11:10:51.087Z,1016.03
2018-10-12T11:13:33.232Z,1016.01
2018-10-12T11:14:33.169Z,1016.03
2018-10-12T11:15:33.131Z,1016.00
2018-10-12T11:16:33.028Z,1016.09
2018-10-12T11:17:32.946Z,1016.07
2018-10-12T11:18:32.881Z,1016.04
2018-10-12T11:19:32.821Z,1016.06
2018-10-12T11:20:33.755Z,1016.03
2018-10-12T11:21:32.667Z,1016.03
2018-10-12T11:24:14.722Z,1015.99
2018-10-12T11:25:14.690Z,1015.99
2018-10-12T11:26:14.667Z,1016.04
2018-10-12T11:28:56.733Z,1015.98
2018-10-12T11:29:56.657Z,1015.96
2018-10-12T11:30:56.670Z,1015.94
2018-10-12T11:31:56.551Z,1015.97
2018-10-12T11:32:56.611Z,1015.98
2018-10-12T11:33:56.448Z,1015.90
2018-10-12T11:34:56.305Z,1015.92
2018-10-12T11:35:56.279Z,1015.86
2018-10-12T11:36:56.165Z,1015.87
2018-10-12T11:37:56.104Z,1015.91
2018-10-12T11:38:56.019Z,1015.91
2018-10-12T11:39:55.965Z,1015.89
2018-10-12T11:40:55.923Z,1015.88
2018-10-12T11:41:55.856Z,1015.84
2018-10-12T11:42:55.780Z,1015.85
2018-10-12T11:45:37.757Z,1015.76
2018-10-12T11:46:37.671Z,1015.73
2018-10-12T11:47:37.621Z,1015.73
2018-10-12T11:48:37.528Z,1015.72
2018-10-12T11:49:37.462Z,1015.72
2018-10-12T11:52:19.889Z,1015.70
2018-10-12T11:53:19.717Z,1015.59
2018-10-12T11:54:19.586Z,1015.66
2018-10-12T11:55:19.525Z,1015.64
2018-10-12T11:56:19.500Z,1015.67
2018-10-12T11:57:19.410Z,1015.58
2018-10-12T11:58:19.300Z,1015.62
2018-10-12T11:59:19.286Z,1015.56
2018-10-12T12:00:19.158Z,1015.54
2018-10-12T12:01:19.134Z,1015.57
2018-10-12T12:02:19.097Z,1015.52
2018-10-12T12:03:18.973Z,1015.63
2018-10-12T12:04:18.924Z,1015.62
2018-10-12T12:05:18.822Z,1015.72
2018-10-12T12:06:18.740Z,1015.62
2018-10-12T12:07:18.705Z,1015.58
2018-10-12T12:08:18.581Z,1015.57
2018-10-12T12:09:18.537Z,1015.57
2018-10-12T12:10:18.448Z,1015.53
2018-10-12T12:11:18.353Z,1015.56
2018-10-12T12:12:18.269Z,1015.58
2018-10-12T12:13:18.279Z,1015.54
2018-10-12T12:14:18.148Z,1015.49
2018-10-12T12:15:18.072Z,1015.50
2018-10-12T12:16:17.973Z,1015.41
2018-10-12T12:17:17.912Z,1015.37
2018-10-12T12:18:17.976Z,1015.39
2018-10-12T12:19:17.805Z,1015.42
2018-10-12T12:20:17.661Z,1015.54
2018-10-12T12:22:59.781Z,1015.48
2018-10-12T12:23:59.699Z,1015.48
2018-10-12T12:24:59.595Z,1015.44
2018-10-12T12:25:59.539Z,1015.48
2018-10-12T12:26:59.472Z,1015.48
2018-10-12T12:27:59.371Z,1015.45
2018-10-12T12:28:59.331Z,1015.37
2018-10-12T12:29:59.217Z,1015.45
2018-10-12T12:30:59.138Z,1015.40
2018-10-12T12:31:59.064Z,1015.42
2018-10-12T12:32:58.997Z,1015.31
2018-10-12T12:34:00.938Z,1015.30
2018-10-12T12:34:59.048Z,1015.32
2018-10-12T12:35:58.972Z,1015.29
2018-10-12T12:36:58.667Z,1015.21
2018-10-12T12:37:58.595Z,1015.30
2018-10-12T12:38:58.580Z,1015.24
2018-10-12T12:39:58.455Z,1015.25
2018-10-12T12:40:58.372Z,1015.36
2018-10-12T12:43:40.253Z,1015.24
2018-10-12T12:44:41.248Z,1015.26
2018-10-12T12:45:40.143Z,1015.27
2018-10-12T12:46:40.035Z,1015.25
2018-10-12T12:47:40.050Z,1015.23
2018-10-12T12:48:40.114Z,1015.29
2018-10-12T12:49:39.801Z,1015.30
2018-10-12T12:50:41.749Z,1015.37
2018-10-12T12:51:39.685Z,1015.33
2018-10-12T12:52:39.591Z,1015.27
2018-10-12T12:53:39.482Z,1015.28
2018-10-12T12:56:21.783Z,1015.29
2018-10-12T12:59:03.787Z,1015.25
2018-10-12T13:00:03.715Z,1015.23
2018-10-12T13:01:03.604Z,1015.21
2018-10-12T13:02:04.574Z,1015.16
2018-10-12T13:03:03.448Z,1015.23
2018-10-12T13:04:03.409Z,1015.24
2018-10-12T13:05:03.320Z,1015.16
2018-10-12T13:06:03.227Z,1015.19
2018-10-12T13:07:03.137Z,1015.16
2018-10-12T13:08:03.130Z,1015.21
2018-10-12T13:09:02.998Z,1015.20
2018-10-12T13:11:45.282Z,1015.11
2018-10-12T13:14:27.285Z,1015.13
2018-10-12T13:15:27.189Z,1015.17
2018-10-12T13:16:27.114Z,1015.19
2018-10-12T13:17:27.144Z,1015.17
2018-10-12T13:18:26.960Z,1015.17
2018-10-12T13:19:26.886Z,1015.20
2018-10-12T13:20:26.941Z,1015.13
2018-10-12T13:21:26.752Z,1015.13
2018-10-12T13:22:26.692Z,1015.12
2018-10-12T13:25:08.763Z,1015.18
2018-10-12T13:27:50.798Z,1015.20
2018-10-12T13:30:32.784Z,1015.36
2018-10-12T13:31:32.726Z,1015.28
2018-10-12T13:32:32.623Z,1015.34
2018-10-12T13:33:32.565Z,1015.34
2018-10-12T13:34:32.463Z,1015.37
2018-10-12T13:37:05.886Z,1015.40
2018-10-12T13:37:06.391Z,1015.32
2018-10-12T13:38:06.349Z,1015.39
2018-10-12T13:39:06.261Z,1015.40
2018-10-12T13:40:06.169Z,1015.53
2018-10-12T13:41:06.082Z,1015.45
2018-10-12T13:42:06.042Z,1015.42
2018-10-12T13:43:05.951Z,1015.50
2018-10-12T13:45:48.276Z,1015.51
2018-10-12T13:48:30.311Z,1015.51
2018-10-12T13:49:30.231Z,1015.53
2018-10-12T13:50:30.122Z,1015.57
2018-10-12T13:51:30.054Z,1015.57
2018-10-12T13:52:29.970Z,1015.57
2018-10-12T13:53:29.917Z,1015.61
2018-10-12T13:54:29.917Z,1015.58
2018-10-12T13:55:29.750Z,1015.67
2018-10-12T13:56:29.662Z,1015.63
2018-10-12T13:57:29.600Z,1015.64
2018-10-12T13:58:29.542Z,1015.62
2018-10-12T13:59:29.439Z,1015.62
2018-10-12T14:00:29.453Z,1015.63
2018-10-12T14:01:29.292Z,1015.65
2018-10-12T14:02:29.231Z,1015.68
2018-10-12T14:03:29.186Z,1015.59
2018-10-12T14:04:29.056Z,1015.63
2018-10-12T14:05:29.008Z,1015.60
2018-10-12T14:06:28.911Z,1015.60
2018-10-12T14:07:28.851Z,1015.63
2018-10-12T14:08:28.791Z,1015.55
2018-10-12T14:09:28.670Z,1015.53
2018-10-12T14:10:28.714Z,1015.54
2018-10-12T14:11:28.543Z,1015.49
2018-10-12T14:12:28.579Z,1015.54
2018-10-12T14:13:28.399Z,1015.50
2018-10-12T14:14:28.340Z,1015.50
2018-10-12T14:15:28.254Z,1015.53
2018-10-12T14:16:28.177Z,1015.51
2018-10-12T14:17:28.088Z,1015.57
2018-10-12T14:18:28.043Z,1015.54
2018-10-12T14:19:28.089Z,1015.52
2018-10-12T14:20:27.892Z,1015.55
2018-10-12T14:21:27.771Z,1015.65
2018-10-12T14:22:27.678Z,1015.58
2018-10-12T14:23:27.602Z,1015.53
2018-10-12T14:24:27.545Z,1015.56
2018-10-12T14:25:27.450Z,1015.57
2018-10-12T14:26:27.369Z,1015.52
2018-10-12T14:27:27.313Z,1015.61
2018-10-12T14:28:27.225Z,1015.49
2018-10-12T14:29:27.156Z,1015.54
2018-10-12T14:30:27.099Z,1015.55
2018-10-12T14:31:27.022Z,1015.56
2018-10-12T14:32:26.908Z,1015.56
2018-10-12T14:33:26.859Z,1015.56
2018-10-12T14:34:26.830Z,1015.53
2018-10-12T14:35:26.748Z,1015.56
2018-10-12T14:36:26.612Z,1015.49
2018-10-12T14:37:26.548Z,1015.51
2018-10-12T14:38:26.448Z,1015.54
2018-10-12T14:39:26.398Z,1015.47
2018-10-12T14:40:26.316Z,1015.46
2018-10-12T14:41:26.229Z,1015.45
2018-10-12T14:42:26.195Z,1015.43
2018-10-12T14:43:26.092Z,1015.41
2018-10-12T14:44:26.271Z,1015.42
2018-10-12T14:45:25.946Z,1015.41
2018-10-12T14:46:25.914Z,1015.42
2018-10-12T14:47:25.784Z,1015.44
2018-10-12T14:48:25.684Z,1015.41
2018-10-12T14:49:25.692Z,1015.43
2018-10-12T14:50:25.530Z,1015.41
2018-10-12T14:51:26.569Z,1015.41
2018-10-12T14:52:25.525Z,1015.40
2018-10-12T14:53:25.330Z,1015.44
2018-10-12T14:54:25.230Z,1015.46
2018-10-12T14:55:25.158Z,1015.39
2018-10-12T14:56:25.140Z,1015.51
2018-10-12T14:57:25.026Z,1015.45
2018-10-12T14:58:24.913Z,1015.49
2018-10-12T14:59:24.847Z,1015.42